Time;durP1;ratioP1;P1;durP2;ratioP2;P2;SDS_P1;SDS_P2;PMS_P1;PMS_P2;Temp;Humidity;BMP_temperature;BMP_pressure;BME280_temperature;BME280_humidity;BME280_pressure;Samples;Min_cycle;Max_cycle;Signal;HPM_P1;HPM_P2
2023/09/11 00:00:05;;;;;;;3.25;1.90;;;;;;;19.37;69.29;100218.97;5124661;27;20225;-64
2023/09/11 00:02:30;;;;;;;2.25;1.48;;;;;;;19.38;68.97;100220.63;5132659;27;20043;-64
2023/09/11 00:04:56;;;;;;;3.40;1.90;;;;;;;19.30;68.97;100210.91;5132126;27;20031;-64
2023/09/11 00:07:21;;;;;;;5.25;1.80;;;;;;;19.22;69.40;100216.50;5125337;27;20100;-64
2023/09/11 00:09:47;;;;;;;2.90;1.50;;;;;;;19.18;69.73;100211.75;5130792;27;20460;-64
2023/09/11 00:12:12;;;;;;;2.15;1.65;;;;;;;19.13;70.20;100209.69;5123791;27;20046;-64
2023/09/11 00:14:38;;;;;;;3.30;1.83;;;;;;;19.08;70.45;100213.00;5123582;27;20055;-64
2023/09/11 00:17:03;;;;;;;2.55;1.75;;;;;;;19.00;71.07;100215.88;5123448;27;20047;-64
2023/09/11 00:19:29;;;;;;;2.55;1.90;;;;;;;19.04;71.13;100216.28;5132929;27;20568;-64
2023/09/11 00:21:54;;;;;;;3.40;2.20;;;;;;;19.11;70.56;100209.06;5122546;27;20031;-64
2023/09/11 00:24:19;;;;;;;2.67;2.10;;;;;;;19.11;70.29;100204.53;5133197;27;20038;-64
2023/09/11 00:26:45;;;;;;;3.60;2.00;;;;;;;19.21;69.70;100211.34;5124549;27;20440;-65
2023/09/11 00:29:10;;;;;;;4.95;2.45;;;;;;;19.10;69.87;100205.56;5124174;27;20231;-64
2023/09/11 00:31:36;;;;;;;5.05;2.00;;;;;;;19.12;69.71;100206.19;5123391;27;20036;-65
2023/09/11 00:34:01;;;;;;;4.68;2.15;;;;;;;19.01;70.63;100209.47;5122964;27;20105;-64
2023/09/11 00:36:26;;;;;;;1.90;1.77;;;;;;;18.70;72.55;100219.94;5123417;27;20095;-64
2023/09/11 00:38:52;;;;;;;2.63;1.90;;;;;;;18.75;72.40;100226.38;5122972;27;20035;-65
2023/09/11 00:41:17;;;;;;;3.08;1.90;;;;;;;18.66;72.81;100230.25;5123010;27;20224;-64
2023/09/11 00:43:43;;;;;;;4.07;1.90;;;;;;;18.67;72.59;100231.88;5123658;27;20042;-64
2023/09/11 00:46:09;;;;;;;2.95;1.85;;;;;;;18.66;72.97;100222.19;5122319;27;20083;-64
2023/09/11 00:48:34;;;;;;;4.22;2.25;;;;;;;18.71;72.98;100218.91;5123394;27;20075;-65
2023/09/11 00:51:00;;;;;;;3.85;2.67;;;;;;;18.76;72.50;100230.69;5122714;27;20325;-64
2023/09/11 00:53:26;;;;;;;3.20;2.13;;;;;;;18.73;72.75;100225.75;5123653;27;20112;-64
2023/09/11 00:55:52;;;;;;;4.05;2.00;;;;;;;18.63;73.18;100211.03;5122361;27;20237;-64
2023/09/11 00:58:18;;;;;;;3.55;1.98;;;;;;;18.51;73.92;100210.78;5122818;27;20074;-64
2023/09/11 01:00:47;;;;;;;2.58;1.95;;;;;;;18.66;73.40;100213.31;5129839;27;20043;-64
2023/09/11 01:03:12;;;;;;;2.83;2.40;;;;;;;18.66;73.13;100206.09;5132294;27;20030;-63
2023/09/11 01:05:38;;;;;;;4.25;1.77;;;;;;;18.71;72.92;100208.16;5122844;27;20019;-63
2023/09/11 01:08:04;;;;;;;5.65;2.22;;;;;;;18.69;72.86;100208.38;5123947;27;20100;-64
2023/09/11 01:10:30;;;;;;;4.15;2.22;;;;;;;18.58;73.01;100208.13;5122395;27;20303;-63
2023/09/11 01:12:55;;;;;;;2.40;1.98;;;;;;;18.55;73.42;100206.66;5125394;27;20366;-64
2023/09/11 01:15:25;;;;;;;3.13;2.05;;;;;;;18.37;73.87;100209.09;5126974;27;20382;-64
2023/09/11 01:17:57;;;;;;;4.70;1.77;;;;;;;18.45;73.86;100208.91;5122217;27;20043;-64
2023/09/11 01:20:53;;;;;;;3.10;1.85;;;;;;;18.56;73.42;100212.84;5122642;27;20037;-64
2023/09/11 01:23:49;;;;;;;3.00;1.88;;;;;;;18.66;73.08;100211.47;5122258;27;20039;-64
2023/09/11 01:26:34;;;;;;;5.13;1.77;;;;;;;18.64;72.88;100207.31;5123430;27;20347;-64
2023/09/11 01:29:07;;;;;;;2.30;1.60;;;;;;;18.69;72.80;100207.53;5122666;27;20035;-65
2023/09/11 01:31:34;;;;;;;2.42;1.92;;;;;;;18.85;72.30;100201.81;5123606;27;20031;-65
2023/09/11 01:34:01;;;;;;;3.60;1.83;;;;;;;18.80;72.40;100206.97;5129706;27;20249;-64
2023/09/11 01:36:26;;;;;;;4.53;1.88;;;;;;;18.88;71.99;100198.72;5131141;27;20215;-64
2023/09/11 01:38:52;;;;;;;6.20;2.15;;;;;;;18.95;71.86;100194.19;5124864;27;20035;-65
2023/09/11 01:41:20;;;;;;;3.70;1.80;;;;;;;18.94;71.65;100199.78;5127922;27;20046;-64
2023/09/11 01:43:48;;;;;;;2.53;2.08;;;;;;;18.83;71.96;100201.22;5121896;27;20055;-64
2023/09/11 01:46:16;;;;;;;3.67;1.95;;;;;;;18.72;72.74;100188.38;5121948;27;20096;-64
2023/09/11 01:48:43;;;;;;;2.35;1.58;;;;;;;18.76;72.89;100193.16;5121927;27;20051;-64
2023/09/11 01:51:10;;;;;;;4.25;1.80;;;;;;;18.84;72.08;100193.97;5121507;27;20023;-64
2023/09/11 01:53:36;;;;;;;2.42;1.73;;;;;;;18.93;71.88;100190.91;5131390;27;20027;-64
2023/09/11 01:56:02;;;;;;;4.10;1.75;;;;;;;19.01;71.48;100198.75;5121673;27;20031;-64
2023/09/11 01:58:27;;;;;;;4.53;1.92;;;;;;;19.06;71.13;100196.25;5122610;27;20031;-64
2023/09/11 02:00:52;;;;;;;3.20;1.65;;;;;;;19.00;71.60;100194.41;5129216;27;20023;-64
2023/09/11 02:03:19;;;;;;;2.03;1.60;;;;;;;18.99;71.47;100187.38;5122729;27;20043;-64
2023/09/11 02:05:44;;;;;;;3.53;2.00;;;;;;;19.11;70.86;100191.09;5130283;27;20042;-64
2023/09/11 02:08:10;;;;;;;5.05;2.25;;;;;;;19.16;70.89;100185.13;5121682;28;20276;-64
2023/09/11 02:10:35;;;;;;;3.38;1.98;;;;;;;19.14;70.87;100179.13;5122573;27;20422;-64
2023/09/11 02:13:00;;;;;;;3.05;1.70;;;;;;;18.98;71.71;100175.00;5128641;27;20341;-64
2023/09/11 02:15:26;;;;;;;3.05;1.90;;;;;;;18.99;71.56;100183.88;5128555;27;20040;-65
2023/09/11 02:17:51;;;;;;;6.05;2.30;;;;;;;18.99;71.41;100168.59;5127268;27;20356;-64
2023/09/11 02:20:17;;;;;;;3.75;1.65;;;;;;;18.85;72.10;100169.63;5128576;27;20048;-64
2023/09/11 02:22:42;;;;;;;3.72;1.90;;;;;;;18.71;72.76;100162.56;5128912;27;20034;-64
2023/09/11 02:25:08;;;;;;;2.25;1.77;;;;;;;18.59;73.16;100169.53;5130184;27;20043;-64
2023/09/11 02:27:33;;;;;;;1.83;1.70;;;;;;;18.70;72.76;100159.06;5135100;27;20267;-64
2023/09/11 02:29:58;;;;;;;4.47;2.00;;;;;;;18.88;72.15;100168.41;5128852;27;20031;-64
2023/09/11 02:32:24;;;;;;;3.20;1.88;;;;;;;18.66;72.80;100168.53;5144173;27;20036;-64
2023/09/11 02:34:49;;;;;;;3.55;2.25;;;;;;;18.64;73.10;100167.94;5128387;27;20038;-64
2023/09/11 02:37:15;;;;;;;2.88;1.92;;;;;;;18.63;73.12;100166.28;5131755;27;20046;-64
2023/09/11 02:39:40;;;;;;;3.95;1.95;;;;;;;18.75;72.93;100166.53;5132964;27;20035;-65
2023/09/11 02:42:06;;;;;;;5.05;1.95;;;;;;;18.61;73.59;100164.78;5128091;27;20027;-65
2023/09/11 02:44:31;;;;;;;4.65;2.03;;;;;;;18.47;74.36;100162.09;5138108;27;20068;-64
2023/09/11 02:46:56;;;;;;;3.25;2.33;;;;;;;18.62;74.14;100158.44;5128181;27;20436;-64
2023/09/11 02:49:22;;;;;;;6.18;2.17;;;;;;;18.69;73.78;100159.25;5128360;27;20044;-65
2023/09/11 02:51:47;;;;;;;4.75;2.55;;;;;;;18.73;73.37;100160.53;5128033;27;20256;-65
2023/09/11 02:54:13;;;;;;;4.88;2.25;;;;;;;18.76;73.09;100160.13;5127855;27;20047;-65
2023/09/11 02:56:39;;;;;;;3.28;1.98;;;;;;;18.57;73.32;100161.69;5128556;27;20070;-65
2023/09/11 02:59:05;;;;;;;3.60;2.00;;;;;;;18.67;72.81;100153.28;5127893;27;20352;-65
2023/09/11 03:01:31;;;;;;;3.05;1.80;;;;;;;18.61;72.97;100154.94;5127920;27;20242;-64
2023/09/11 03:03:57;;;;;;;3.25;2.10;;;;;;;18.41;72.99;100159.38;5137994;27;20115;-64
2023/09/11 03:06:22;;;;;;;3.60;2.00;;;;;;;18.40;72.96;100163.94;5128373;27;20098;-65
2023/09/11 03:08:47;;;;;;;5.25;2.15;;;;;;;18.43;73.25;100157.34;5128070;27;20043;-65
2023/09/11 03:11:13;;;;;;;2.50;1.88;;;;;;;18.27;73.97;100149.66;5128802;27;20027;-65
2023/09/11 03:13:39;;;;;;;2.97;1.83;;;;;;;18.08;75.28;100151.25;5128328;27;20043;-65
2023/09/11 03:16:12;;;;;;;5.10;2.28;;;;;;;17.91;76.27;100160.66;5127459;27;20081;-64
2023/09/11 03:18:38;;;;;;;3.88;2.20;;;;;;;17.96;75.95;100158.22;5128128;27;20046;-64
2023/09/11 03:21:05;;;;;;;2.92;2.05;;;;;;;17.77;76.95;100149.06;5127626;27;20261;-64
2023/09/11 03:23:31;;;;;;;4.68;2.30;;;;;;;17.68;77.24;100147.53;5128810;27;20050;-65
2023/09/11 03:25:56;;;;;;;3.33;2.15;;;;;;;17.65;77.55;100153.25;5128832;27;20370;-64
2023/09/11 03:28:25;;;;;;;3.35;1.92;;;;;;;17.76;76.19;100153.59;5124330;27;20047;-64
2023/09/11 03:30:51;;;;;;;5.22;2.15;;;;;;;17.79;76.35;100155.88;5135329;27;20031;-65
2023/09/11 03:33:17;;;;;;;3.08;2.30;;;;;;;17.93;75.85;100167.47;5124758;27;20053;-65
2023/09/11 03:35:42;;;;;;;4.32;2.10;;;;;;;17.86;75.84;100167.44;5124507;27;20059;-65
2023/09/11 03:38:07;;;;;;;4.85;2.70;;;;;;;17.82;76.42;100160.00;5125034;27;20039;-65
2023/09/11 03:40:33;;;;;;;7.07;2.80;;;;;;;17.82;76.22;100157.34;5124689;27;20317;-65
2023/09/11 03:42:58;;;;;;;4.85;2.33;;;;;;;17.78;76.67;100158.75;5124230;27;20033;-64
2023/09/11 03:45:23;;;;;;;8.00;2.97;;;;;;;17.71;77.22;100155.22;5124993;27;20028;-64
2023/09/11 03:47:49;;;;;;;4.30;2.40;;;;;;;17.75;77.09;100153.78;5123390;27;20039;-65
2023/09/11 03:50:14;;;;;;;5.47;2.72;;;;;;;17.74;76.65;100162.84;5133814;27;20069;-65
2023/09/11 03:52:40;;;;;;;5.70;2.25;;;;;;;17.71;77.31;100163.25;5124459;27;20043;-64
2023/09/11 03:55:05;;;;;;;5.07;2.20;;;;;;;17.73;76.95;100151.31;5124156;27;20037;-64
2023/09/11 03:57:31;;;;;;;6.20;2.33;;;;;;;17.60;77.46;100161.06;5123714;27;20341;-65
2023/09/11 03:59:56;;;;;;;4.35;2.35;;;;;;;17.65;77.92;100161.31;5123616;27;20028;-64
2023/09/11 04:02:22;;;;;;;7.07;2.70;;;;;;;17.65;77.64;100164.81;5125258;27;20036;-64
2023/09/11 04:04:47;;;;;;;3.80;2.65;;;;;;;17.61;77.79;100163.53;5132569;27;20043;-62
2023/09/11 04:07:12;;;;;;;4.00;2.58;;;;;;;17.45;78.20;100163.88;5125884;27;20053;-63
2023/09/11 04:09:38;;;;;;;2.83;2.22;;;;;;;17.66;77.56;100165.63;5131305;27;20031;-65
2023/09/11 04:12:04;;;;;;;3.85;2.38;;;;;;;17.77;76.95;100163.28;5123516;27;20230;-64
2023/09/11 04:14:29;;;;;;;5.63;2.25;;;;;;;17.69;76.97;100163.44;5123700;27;20035;-64
2023/09/11 04:16:56;;;;;;;4.75;2.33;;;;;;;17.53;77.40;100166.38;5114228;27;20264;-63
2023/09/11 04:19:21;;;;;;;4.20;2.35;;;;;;;17.22;79.51;100167.63;5122598;27;20081;-62
2023/09/11 04:21:47;;;;;;;5.40;2.63;;;;;;;17.04;80.83;100167.28;5123901;27;20035;-63
2023/09/11 04:24:12;;;;;;;5.30;2.40;;;;;;;16.81;82.03;100169.34;5123526;27;20050;-63
2023/09/11 04:26:43;;;;;;;6.00;2.15;;;;;;;16.90;82.08;100174.38;5124670;27;20043;-63
2023/09/11 04:29:11;;;;;;;3.85;2.15;;;;;;;16.96;81.73;100177.28;5123223;27;20061;-63
2023/09/11 04:31:38;;;;;;;6.40;2.20;;;;;;;16.75;82.52;100178.97;5132845;27;20331;-63
2023/09/11 04:34:04;;;;;;;6.60;2.35;;;;;;;16.61;83.75;100179.78;5122805;27;20076;-64
2023/09/11 04:36:29;;;;;;;3.05;1.75;;;;;;;16.72;83.30;100176.66;5123279;27;20032;-63
2023/09/11 04:38:55;;;;;;;4.43;2.90;;;;;;;16.95;82.06;100189.00;5123251;27;20036;-63
2023/09/11 04:41:21;;;;;;;3.85;2.22;;;;;;;17.04;81.77;100185.19;5124002;27;20070;-63
2023/09/11 04:43:46;;;;;;;4.93;2.45;;;;;;;17.13;81.83;100181.34;5123241;27;20027;-64
2023/09/11 04:46:12;;;;;;;4.75;2.05;;;;;;;17.18;81.44;100182.41;5132025;27;20259;-63
2023/09/11 04:48:37;;;;;;;5.60;2.20;;;;;;;17.23;81.29;100181.84;5131391;27;20447;-63
2023/09/11 04:51:03;;;;;;;4.47;2.60;;;;;;;17.49;79.79;100183.88;5131896;27;20034;-63
2023/09/11 04:53:28;;;;;;;5.72;3.75;;;;;;;17.76;78.76;100183.06;5123012;27;20054;-63
2023/09/11 04:55:54;;;;;;;5.47;2.92;;;;;;;17.96;77.73;100187.69;5123324;27;20079;-63
2023/09/11 04:58:19;;;;;;;3.92;2.55;;;;;;;18.09;77.71;100183.22;5123334;27;20384;-63
2023/09/11 05:00:45;;;;;;;7.57;6.82;;;;;;;18.06;77.90;100183.63;5122988;27;20120;-63
2023/09/11 05:03:10;;;;;;;3.53;2.40;;;;;;;17.81;78.39;100193.19;5122564;27;20031;-63
2023/09/11 05:05:40;;;;;;;3.95;2.08;;;;;;;17.85;78.84;100192.59;5123520;27;20019;-63
2023/09/11 05:08:06;;;;;;;2.25;2.13;;;;;;;18.02;78.66;100190.41;5122923;27;20052;-63
2023/09/11 05:10:32;;;;;;;6.18;2.30;;;;;;;18.00;78.32;100184.41;5122583;27;20043;-63
2023/09/11 05:12:57;;;;;;;12.65;10.40;;;;;;;18.09;78.14;100187.75;5122201;27;20097;-63
2023/09/11 05:15:23;;;;;;;4.63;3.17;;;;;;;18.06;78.36;100182.78;5128236;27;20087;-63
2023/09/11 05:17:49;;;;;;;4.47;2.22;;;;;;;18.40;76.49;100184.56;5124005;27;20049;-63
2023/09/11 05:20:15;;;;;;;9.32;8.45;;;;;;;18.60;75.59;100189.97;5122431;27;20031;-64
2023/09/11 05:22:41;;;;;;;3.20;2.00;;;;;;;18.68;74.66;100182.59;5122771;27;20052;-63
2023/09/11 05:25:07;;;;;;;5.22;4.53;;;;;;;19.02;73.92;100186.16;5122297;27;20081;-63
2023/09/11 05:27:33;;;;;;;24.85;22.75;;;;;;;19.20;72.25;100178.31;5122410;27;20088;-63
2023/09/11 05:29:58;;;;;;;13.60;12.00;;;;;;;19.44;71.97;100179.50;5122341;27;20353;-63
2023/09/11 05:32:25;;;;;;;5.60;5.10;;;;;;;19.55;72.45;100180.75;5122285;27;20039;-63
2023/09/11 05:34:53;;;;;;;3.35;2.22;;;;;;;19.64;71.88;100169.59;5121863;27;20043;-64
2023/09/11 05:37:19;;;;;;;4.78;2.05;;;;;;;19.67;71.51;100182.59;5121358;27;20047;-63
2023/09/11 05:39:45;;;;;;;3.35;1.90;;;;;;;19.75;70.39;100173.47;5121387;27;20051;-63
2023/09/11 05:42:11;;;;;;;5.88;3.30;;;;;;;19.66;70.89;100186.31;5121950;27;20050;-63
2023/09/11 05:44:36;;;;;;;14.57;13.10;;;;;;;19.95;70.96;100182.34;5120854;27;20023;-63
2023/09/11 05:47:03;;;;;;;10.57;9.57;;;;;;;20.20;70.77;100184.28;5120037;27;20030;-63
2023/09/11 05:49:28;;;;;;;3.28;2.40;;;;;;;20.49;69.49;100185.63;5120774;27;20063;-63
2023/09/11 05:51:55;;;;;;;5.63;2.30;;;;;;;20.75;68.43;100184.63;5121551;27;20213;-63
2023/09/11 05:54:20;;;;;;;3.60;2.30;;;;;;;20.98;66.77;100184.91;5121573;27;20032;-63
2023/09/11 05:56:45;;;;;;;5.03;2.10;;;;;;;21.08;66.07;100181.72;5121538;27;20039;-63
2023/09/11 05:59:11;;;;;;;4.78;1.83;;;;;;;21.12;66.60;100175.69;5125880;27;20356;-63
2023/09/11 06:01:36;;;;;;;3.30;2.25;;;;;;;21.24;65.57;100176.63;5134709;27;20027;-64
2023/09/11 06:04:02;;;;;;;3.10;2.28;;;;;;;21.24;65.73;100176.63;5133220;27;20370;-64
2023/09/11 06:06:27;;;;;;;3.15;2.08;;;;;;;21.43;65.72;100174.81;5135339;27;20252;-64
2023/09/11 06:08:54;;;;;;;4.03;3.17;;;;;;;21.51;64.35;100171.81;5134044;27;20038;-63
2023/09/11 06:11:20;;;;;;;8.23;3.20;;;;;;;21.61;64.09;100171.31;5135202;28;20066;-63
2023/09/11 06:13:48;;;;;;;2.25;2.00;;;;;;;21.79;63.83;100175.88;5134149;28;20045;-63
2023/09/11 06:16:13;;;;;;;6.85;2.10;;;;;;;21.89;62.70;100186.97;5133997;28;20046;-64
2023/09/11 06:18:39;;;;;;;5.38;2.08;;;;;;;22.01;62.16;100178.97;5135287;28;20035;-63
2023/09/11 06:21:04;;;;;;;4.75;3.42;;;;;;;21.94;61.68;100181.75;5135429;28;20316;-63
2023/09/11 06:23:29;;;;;;;3.17;2.13;;;;;;;22.10;61.26;100183.03;5134652;28;20049;-63
2023/09/11 06:25:55;;;;;;;4.70;2.30;;;;;;;22.08;61.18;100188.66;5136926;28;20027;-63
2023/09/11 06:28:20;;;;;;;4.75;1.75;;;;;;;22.26;60.66;100185.94;5135360;27;20031;-63
2023/09/11 06:30:46;;;;;;;3.25;2.28;;;;;;;22.37;61.04;100188.91;5134967;28;20274;-63
2023/09/11 06:33:11;;;;;;;5.47;2.50;;;;;;;22.42;60.14;100189.88;5134295;28;20047;-63
2023/09/11 06:35:36;;;;;;;4.90;3.45;;;;;;;22.58;59.98;100181.13;5134029;28;20224;-65
2023/09/11 06:38:02;;;;;;;10.05;4.00;;;;;;;22.82;59.25;100181.22;5133089;28;20341;-62
2023/09/11 06:40:27;;;;;;;6.15;3.05;;;;;;;22.89;59.40;100190.06;5135037;28;20039;-62
2023/09/11 06:42:53;;;;;;;5.97;4.28;;;;;;;22.86;59.20;100182.41;5133835;28;20778;-63
2023/09/11 06:45:18;;;;;;;4.05;2.60;;;;;;;22.98;58.85;100182.47;5134013;28;20031;-63
2023/09/11 06:47:44;;;;;;;4.65;2.05;;;;;;;23.11;56.41;100176.84;5134013;28;20345;-63
2023/09/11 06:50:11;;;;;;;3.60;1.73;;;;;;;23.16;56.90;100171.56;5133803;28;20098;-62
2023/09/11 06:52:40;;;;;;;5.63;1.95;;;;;;;23.28;57.12;100177.78;5133980;28;20042;-63
2023/09/11 06:55:07;;;;;;;2.80;1.67;;;;;;;23.30;56.80;100177.56;5134015;27;20331;-63
2023/09/11 06:57:33;;;;;;;2.55;2.03;;;;;;;23.50;56.35;100178.84;5134366;27;20054;-63
2023/09/11 06:59:58;;;;;;;3.03;1.90;;;;;;;23.61;54.97;100174.50;5137938;27;20035;-63
2023/09/11 07:02:24;;;;;;;2.70;2.30;;;;;;;23.98;53.93;100177.75;5138126;27;20247;-62
2023/09/11 07:04:49;;;;;;;2.45;1.80;;;;;;;24.07;54.35;100175.50;5138512;27;20076;-63
2023/09/11 07:07:15;;;;;;;2.45;1.70;;;;;;;24.15;53.81;100181.34;5137789;27;20042;-63
2023/09/11 07:09:40;;;;;;;5.95;1.75;;;;;;;24.30;52.39;100178.16;5138200;27;21090;-63
2023/09/11 07:12:06;;;;;;;2.97;1.70;;;;;;;24.38;52.85;100185.91;5139776;27;20027;-63
2023/09/11 07:14:31;;;;;;;3.92;2.85;;;;;;;24.44;51.21;100178.69;5136298;27;20409;-63
2023/09/11 07:17:00;;;;;;;4.45;2.22;;;;;;;24.61;51.67;100178.72;5137396;27;20038;-63
2023/09/11 07:19:26;;;;;;;2.40;1.77;;;;;;;24.66;51.33;100171.50;5137409;27;20031;-62
2023/09/11 07:21:51;;;;;;;4.50;1.60;;;;;;;24.79;50.80;100178.50;5138323;27;20222;-63
2023/09/11 07:24:17;;;;;;;3.92;1.70;;;;;;;24.87;50.26;100174.56;5139293;27;20039;-63
2023/09/11 07:26:43;;;;;;;6.65;2.22;;;;;;;24.86;50.26;100178.34;5136700;27;20027;-62
2023/09/11 07:29:08;;;;;;;3.67;2.25;;;;;;;25.16;50.78;100172.66;5137552;27;20039;-63
2023/09/11 07:31:35;;;;;;;3.50;1.80;;;;;;;25.23;50.21;100174.13;5136846;27;20037;-63
2023/09/11 07:34:01;;;;;;;8.20;2.03;;;;;;;25.49;48.43;100177.22;5137509;27;20100;-63
2023/09/11 07:36:28;;;;;;;3.13;1.70;;;;;;;25.33;48.80;100181.59;5137412;27;20031;-63
2023/09/11 07:38:53;;;;;;;7.15;3.50;;;;;;;25.40;48.85;100177.66;5137522;27;20303;-62
2023/09/11 07:41:20;;;;;;;7.13;3.08;;;;;;;25.51;48.54;100180.50;5137017;27;20031;-63
2023/09/11 07:43:49;;;;;;;2.95;1.70;;;;;;;25.61;47.29;100176.06;5135927;27;20217;-63
2023/09/11 07:46:16;;;;;;;2.40;1.70;;;;;;;25.71;46.79;100170.78;5137281;27;20024;-63
2023/09/11 07:48:41;;;;;;;3.97;1.60;;;;;;;25.82;47.33;100168.22;5136809;27;20024;-63
2023/09/11 07:51:06;;;;;;;4.75;2.10;;;;;;;25.76;48.11;100170.84;5136707;27;20091;-63
2023/09/11 07:53:32;;;;;;;2.67;1.90;;;;;;;25.89;46.42;100166.94;5136589;27;20191;-63
2023/09/11 07:55:57;;;;;;;3.15;1.80;;;;;;;25.97;46.99;100165.69;5136471;27;20035;-63
2023/09/11 07:58:24;;;;;;;5.95;1.77;;;;;;;26.02;46.08;100163.88;5136184;27;20035;-63
2023/09/11 08:00:49;;;;;;;4.95;1.77;;;;;;;26.18;47.05;100166.78;5136073;27;20027;-63
2023/09/11 08:03:14;;;;;;;2.63;1.95;;;;;;;26.30;44.96;100165.56;5136128;27;20035;-63
2023/09/11 08:05:40;;;;;;;2.78;1.70;;;;;;;26.31;45.39;100161.78;5136100;27;20023;-63
2023/09/11 08:08:05;;;;;;;5.95;2.63;;;;;;;26.43;44.50;100160.84;5138009;27;20043;-64
2023/09/11 08:10:32;;;;;;;2.72;2.03;;;;;;;26.13;44.58;100158.59;5135198;27;20047;-63
2023/09/11 08:12:57;;;;;;;4.15;2.13;;;;;;;26.17;45.84;100157.81;5134731;27;20087;-64
2023/09/11 08:15:23;;;;;;;2.17;1.98;;;;;;;26.23;45.31;100154.09;5135061;27;20258;-64
2023/09/11 08:17:49;;;;;;;3.47;1.85;;;;;;;26.37;44.58;100157.25;5136827;27;20344;-63
2023/09/11 08:20:14;;;;;;;3.20;1.85;;;;;;;26.47;43.43;100149.19;5137630;27;20088;-64
2023/09/11 08:22:41;;;;;;;5.38;1.80;;;;;;;26.46;43.76;100149.47;5136378;27;20088;-64
2023/09/11 08:25:08;;;;;;;4.50;4.07;;;;;;;26.29;44.07;100144.91;5136008;27;20343;-63
2023/09/11 08:27:34;;;;;;;4.00;3.50;;;;;;;26.20;43.12;100140.19;5135818;27;20057;-63
2023/09/11 08:29:59;;;;;;;4.43;3.28;;;;;;;26.34;44.83;100136.03;5137407;27;20031;-63
2023/09/11 08:32:24;;;;;;;5.05;1.60;;;;;;;26.34;44.12;100139.56;5136080;27;20030;-64
2023/09/11 08:34:50;;;;;;;6.18;2.17;;;;;;;26.46;43.71;100136.69;5136235;27;20041;-63
2023/09/11 08:37:15;;;;;;;4.57;2.08;;;;;;;26.38;42.74;100137.16;5136971;27;20034;-64
2023/09/11 08:39:41;;;;;;;3.42;2.03;;;;;;;26.41;43.14;100133.94;5136598;27;20030;-63
2023/09/11 08:42:09;;;;;;;8.02;2.70;;;;;;;26.33;43.04;100131.69;5136060;27;20233;-63
2023/09/11 08:44:34;;;;;;;2.88;2.03;;;;;;;26.39;41.20;100123.34;5136527;27;20033;-63
2023/09/11 08:47:03;;;;;;;5.07;2.00;;;;;;;26.43;40.83;100131.78;5136080;27;20197;-64
2023/09/11 08:49:33;;;;;;;3.70;2.22;;;;;;;26.50;40.24;100124.25;5135199;27;20068;-64
2023/09/11 08:52:03;;;;;;;8.82;2.75;;;;;;;26.51;38.28;100125.88;5136364;27;20097;-64
2023/09/11 08:54:34;;;;;;;4.88;1.83;;;;;;;26.57;37.89;100129.47;5135677;27;20212;-64
2023/09/11 08:57:02;;;;;;;6.85;1.85;;;;;;;26.57;38.14;100115.88;5135158;27;20043;-63
2023/09/11 08:59:29;;;;;;;5.57;2.47;;;;;;;26.62;38.15;100115.94;5135519;27;20038;-63
2023/09/11 09:01:55;;;;;;;2.15;1.50;;;;;;;26.03;36.53;100116.69;5134146;27;20103;-64
2023/09/11 09:04:21;;;;;;;6.30;1.90;;;;;;;26.01;37.20;100110.69;5135294;27;20048;-63
2023/09/11 09:06:48;;;;;;;3.53;2.03;;;;;;;26.18;38.88;100110.59;5134823;27;20363;-64
2023/09/11 09:09:13;;;;;;;6.68;1.92;;;;;;;26.26;38.17;100112.03;5134344;27;20034;-63
2023/09/11 09:11:41;;;;;;;2.85;1.60;;;;;;;26.28;37.84;100107.16;5133029;27;20352;-63
2023/09/11 09:14:08;;;;;;;2.40;1.60;;;;;;;26.24;38.61;100103.31;5132611;27;20050;-63
2023/09/11 09:16:34;;;;;;;2.83;1.50;;;;;;;26.18;37.86;100107.06;5132722;27;20035;-64
2023/09/11 09:19:00;;;;;;;2.63;1.92;;;;;;;26.17;37.66;100103.53;5132610;27;20037;-63
2023/09/11 09:21:25;;;;;;;1.75;1.55;;;;;;;26.17;37.32;100108.97;5132799;27;20028;-63
2023/09/11 09:23:53;;;;;;;4.10;1.60;;;;;;;26.26;36.89;100099.28;5133404;27;20027;-63
2023/09/11 09:26:19;;;;;;;3.53;1.77;;;;;;;26.34;36.20;100098.03;5135036;27;20070;-64
2023/09/11 09:28:51;;;;;;;3.65;1.65;;;;;;;26.36;36.45;100096.69;5135113;27;20035;-65
2023/09/11 09:31:25;;;;;;;3.53;1.73;;;;;;;26.04;34.92;100090.38;5135438;27;20076;-64
2023/09/11 09:33:53;;;;;;;;;;;;;;;25.88;35.40;100093.97;5135430;27;20033;-64
2023/09/11 09:36:19;;;;;;;3.20;1.58;;;;;;;25.85;35.02;100091.75;5135543;27;20229;-64
2023/09/11 09:38:44;;;;;;;4.07;1.70;;;;;;;25.90;35.35;100075.53;5134741;27;20031;-64
2023/09/11 09:41:10;;;;;;;1.60;1.50;;;;;;;25.76;34.42;100075.09;5136045;27;20238;-64
2023/09/11 09:43:36;;;;;;;3.00;1.50;;;;;;;25.69;34.61;100078.00;5135280;27;20042;-64
2023/09/11 09:46:17;;;;;;;3.45;1.80;;;;;;;25.28;34.42;100073.94;5134952;27;20032;-64
2023/09/11 09:48:43;;;;;;;2.40;1.65;;;;;;;25.34;34.46;100072.94;5135917;27;20101;-63
2023/09/11 09:51:08;;;;;;;3.47;1.80;;;;;;;25.20;35.27;100073.53;5134686;27;20247;-63
2023/09/11 09:53:41;;;;;;;2.22;1.42;;;;;;;25.15;34.65;100071.59;5134603;27;20031;-63
2023/09/11 09:56:08;;;;;;;4.15;1.73;;;;;;;24.96;35.95;100072.88;5134745;27;20053;-63
2023/09/11 09:58:38;;;;;;;4.30;2.00;;;;;;;25.12;34.86;100059.34;5135037;27;20247;-63
2023/09/11 10:01:12;;;;;;;4.28;2.03;;;;;;;25.19;35.56;100061.06;5135088;27;20219;-63
2023/09/11 10:03:51;;;;;;;3.35;1.70;;;;;;;25.16;34.86;100056.16;5135541;27;20083;-63
2023/09/11 10:06:21;;;;;;;4.35;1.80;;;;;;;25.21;35.79;100056.22;5134039;27;20063;-63
2023/09/11 10:09:02;;;;;;;2.78;1.50;;;;;;;25.34;36.20;100045.00;5135282;27;20266;-64
2023/09/11 10:11:30;;;;;;;4.78;1.70;;;;;;;25.45;37.23;100031.31;5133468;27;20171;-64
2023/09/11 10:14:00;;;;;;;2.75;1.73;;;;;;;25.71;36.82;100043.31;5133370;28;20268;-64
2023/09/11 10:16:26;;;;;;;3.75;1.63;;;;;;;25.76;35.74;100040.66;5131490;28;20047;-64
2023/09/11 10:18:57;;;;;;;2.30;2.00;;;;;;;25.68;35.15;100043.00;5132630;28;20033;-64
2023/09/11 10:21:24;;;;;;;2.30;1.55;;;;;;;25.65;35.01;100035.34;5133031;28;20081;-64
2023/09/11 10:23:49;;;;;;;3.00;1.45;;;;;;;25.46;35.54;100034.84;5133522;28;20058;-64
2023/09/11 10:26:20;;;;;;;3.47;1.90;;;;;;;25.28;35.90;100035.16;5133410;28;20384;-64
2023/09/11 10:28:49;;;;;;;3.17;1.48;;;;;;;25.38;35.78;100033.41;5133035;28;20046;-64
2023/09/11 10:31:24;;;;;;;3.05;1.52;;;;;;;25.39;36.42;100035.03;5135012;28;20038;-64
2023/09/11 10:33:55;;;;;;;3.45;1.90;;;;;;;25.18;35.00;100026.91;5136783;27;20559;-65
2023/09/11 10:36:27;;;;;;;4.80;1.80;;;;;;;25.24;35.00;100020.47;5137033;27;20035;-64
2023/09/11 10:38:56;;;;;;;3.72;1.67;;;;;;;25.25;35.13;100019.41;5119649;27;20357;-64
2023/09/11 10:41:22;;;;;;;3.63;1.70;;;;;;;25.27;36.15;100018.09;5138508;27;20031;-65
2023/09/11 10:43:48;;;;;;;5.13;1.90;;;;;;;25.30;35.05;100020.28;5138391;27;20341;-65
2023/09/11 10:46:21;;;;;;;3.80;1.98;;;;;;;25.28;36.04;100017.00;5138679;27;20042;-64
2023/09/11 10:48:46;;;;;;;2.10;1.60;;;;;;;25.27;34.88;100011.84;5137404;27;20027;-64
2023/09/11 10:51:13;;;;;;;3.33;1.52;;;;;;;25.34;35.57;100017.91;5139360;27;20070;-64
2023/09/11 10:53:40;;;;;;;2.00;1.77;;;;;;;25.35;35.30;100022.25;5140422;27;20116;-63
2023/09/11 10:56:06;;;;;;;4.03;1.63;;;;;;;25.38;34.71;100014.44;5137974;27;20035;-64
2023/09/11 10:58:32;;;;;;;2.30;2.03;;;;;;;25.34;35.42;100007.88;5138688;27;20268;-63
2023/09/11 11:00:58;;;;;;;1.58;1.40;;;;;;;25.21;35.03;100012.84;5137583;27;20043;-64
2023/09/11 11:03:29;;;;;;;4.28;1.70;;;;;;;25.23;35.99;100006.09;5138693;27;20038;-64
2023/09/11 11:05:55;;;;;;;6.30;1.70;;;;;;;25.26;35.31;100016.44;5138263;27;20038;-63
2023/09/11 11:08:21;;;;;;;2.55;1.65;;;;;;;25.28;34.73;100003.47;5137540;27;20441;-62
2023/09/11 11:10:50;;;;;;;2.63;1.50;;;;;;;25.27;35.59;100009.13;5136629;27;20090;-63
2023/09/11 11:13:16;;;;;;;2.78;1.75;;;;;;;25.35;35.59;100009.50;5136721;27;20034;-63
2023/09/11 11:15:42;;;;;;;3.08;1.77;;;;;;;25.29;35.55;100004.28;5137476;27;20035;-64
2023/09/11 11:18:26;;;;;;;5.07;1.55;;;;;;;25.16;34.49;100005.47;5137628;27;20234;-64
2023/09/11 11:21:00;;;;;;;4.60;1.83;;;;;;;25.22;34.71;99990.91;5136449;27;20102;-63